Barstow, California
Current Conditions -  °F | °C
As of 3:50 AM on Sunday 23 Nov 2014 (Local Time) from KDAG Reporting Station
Clear Clear  
Wind Chill: 51°   Ceiling: Unl
Heat Index: 51°   Visibility: 10mi
Dew Point: 41°   Wind: 7mph
Humidity: 68%   Direction: 260°W
Pressure: 30.13"   Gusts: NA
Location:  34.89°N, 117.02°W
Report Text: KDAG 231150Z AUTO 26006KT 10SM CLR 11/05 A3013 RMK AO2 SLP189 T01060050 10172 20106 51026
Loading
Personal Weather Stations






























Interactive Weather Map New forecast layout! Learn more

10-Day Weather Forecast

Advertisements
Track Severe Weather on mobile